Time;durP1;ratioP1;P1;durP2;ratioP2;P2;SDS_P1;SDS_P2;PMS_P1;PMS_P2;Temp;Humidity;BMP_temperature;BMP_pressure;BME280_temperature;BME280_humidity;BME280_pressure;Samples;Min_cycle;Max_cycle;Signal;HPM_P1;HPM_P2
2022/07/27 00:01:39;;;;;;;4.38;1.67;;;;;;;18.39;57.39;97320.44;4964345;28;20113;-63
2022/07/27 00:04:17;;;;;;;8.45;1.70;;;;;;;18.38;57.65;97315.25;4968361;28;20128;-64
2022/07/27 00:06:44;;;;;;;5.15;1.70;;;;;;;18.40;57.70;97313.03;4951232;28;20102;-63
2022/07/27 00:09:11;;;;;;;6.90;1.90;;;;;;;18.42;57.83;97310.78;4959509;28;20042;-63
2022/07/27 00:11:38;;;;;;;17.27;2.50;;;;;;;18.37;57.44;97316.38;4967205;28;20545;-63
2022/07/27 00:14:04;;;;;;;6.72;1.98;;;;;;;18.33;58.03;97316.97;4968701;28;20056;-63
2022/07/27 00:16:31;;;;;;;9.80;1.92;;;;;;;18.40;57.90;97319.34;4953712;28;20459;-63
2022/07/27 00:18:58;;;;;;;10.05;2.50;;;;;;;18.38;58.06;97318.81;4948507;28;20051;-63
2022/07/27 00:21:25;;;;;;;6.00;1.88;;;;;;;18.37;58.08;97317.22;4961326;28;20043;-63
2022/07/27 00:23:53;;;;;;;6.95;1.80;;;;;;;18.31;58.45;97316.50;4968172;28;20047;-63
2022/07/27 00:26:20;;;;;;;15.93;2.60;;;;;;;18.35;58.54;97315.88;4954680;28;20051;-63
2022/07/27 00:28:47;;;;;;;7.60;1.80;;;;;;;18.31;58.35;97307.44;4955670;28;20064;-63
2022/07/27 00:31:14;;;;;;;8.07;2.13;;;;;;;18.22;58.90;97301.88;4966465;28;20369;-63
2022/07/27 00:33:41;;;;;;;11.15;2.30;;;;;;;17.97;60.34;97311.34;4967386;28;20538;-63
2022/07/27 00:36:07;;;;;;;10.40;2.40;;;;;;;17.84;60.98;97310.22;4957138;28;20078;-63
2022/07/27 00:38:34;;;;;;;13.52;2.53;;;;;;;17.76;60.95;97306.25;4953343;28;20283;-63
2022/07/27 00:41:00;;;;;;;5.47;2.00;;;;;;;17.77;60.97;97314.16;4967684;28;20274;-63
2022/07/27 00:43:27;;;;;;;9.02;3.45;;;;;;;17.71;61.02;97309.88;4964303;28;20055;-63
2022/07/27 00:45:53;;;;;;;7.85;2.45;;;;;;;17.74;60.56;97303.81;4956724;28;20042;-63
2022/07/27 00:48:20;;;;;;;9.95;2.08;;;;;;;17.80;61.01;97308.06;4967051;28;20047;-63
2022/07/27 00:50:47;;;;;;;4.68;1.95;;;;;;;17.85;60.53;97309.94;4967112;28;20109;-63
2022/07/27 00:53:15;;;;;;;9.27;2.03;;;;;;;17.82;61.16;97310.53;4967369;28;20058;-63
2022/07/27 00:55:43;;;;;;;4.35;1.70;;;;;;;17.85;60.89;97304.44;4955171;28;20038;-63
2022/07/27 00:58:09;;;;;;;5.15;2.00;;;;;;;17.81;60.93;97304.22;4965237;28;20054;-63
2022/07/27 01:00:37;;;;;;;10.38;2.42;;;;;;;17.81;60.83;97298.75;4966777;28;20050;-63
2022/07/27 01:03:04;;;;;;;6.13;1.83;;;;;;;17.85;60.56;97301.72;4967342;28;20050;-63
2022/07/27 01:05:36;;;;;;;5.70;2.00;;;;;;;17.79;60.82;97291.94;4962967;28;20051;-63
2022/07/27 01:08:10;;;;;;;4.45;1.92;;;;;;;17.66;61.33;97299.03;4967816;28;20290;-63
2022/07/27 01:10:38;;;;;;;5.68;1.90;;;;;;;17.64;61.49;97293.03;4966808;28;20051;-62
2022/07/27 01:13:05;;;;;;;11.85;2.35;;;;;;;17.68;61.34;97296.78;4966775;28;20053;-63
2022/07/27 01:15:39;;;;;;;11.48;2.15;;;;;;;17.66;61.54;97301.78;4956868;28;20507;-63
2022/07/27 01:18:10;;;;;;;9.98;2.30;;;;;;;17.66;61.30;97293.56;4947731;28;20125;-63
2022/07/27 01:20:39;;;;;;;6.10;2.47;;;;;;;17.51;61.99;97298.16;4957427;28;20053;-63
2022/07/27 01:23:05;;;;;;;12.25;2.75;;;;;;;17.40;62.73;97294.00;4967118;28;20047;-63
2022/07/27 01:25:32;;;;;;;12.05;3.38;;;;;;;17.38;62.64;97293.47;4957684;28;20102;-63
2022/07/27 01:27:58;;;;;;;13.10;2.38;;;;;;;17.44;62.28;97289.53;4948148;28;20072;-63
2022/07/27 01:30:25;;;;;;;14.90;3.63;;;;;;;17.49;62.19;97283.16;4954911;28;20046;-63
2022/07/27 01:33:02;;;;;;;10.73;2.53;;;;;;;17.37;62.47;97275.41;4967435;28;20047;-63
2022/07/27 01:35:29;;;;;;;10.23;2.63;;;;;;;17.22;63.30;97279.22;4964520;28;20045;-63
2022/07/27 01:37:57;;;;;;;6.78;2.53;;;;;;;17.09;63.99;97287.06;4960700;28;20047;-63
2022/07/27 01:40:24;;;;;;;15.95;2.35;;;;;;;17.08;63.97;97279.16;4965947;28;20462;-63
2022/07/27 01:42:51;;;;;;;9.38;2.30;;;;;;;16.97;64.11;97278.47;4966772;28;20632;-63
2022/07/27 01:45:17;;;;;;;7.00;2.35;;;;;;;16.94;64.63;97274.41;4958854;28;20051;-63
2022/07/27 01:47:44;;;;;;;9.68;2.80;;;;;;;17.01;64.48;97274.84;4958798;28;20104;-63
2022/07/27 01:50:10;;;;;;;8.38;2.15;;;;;;;16.94;64.66;97276.31;4976228;28;20049;-63
2022/07/27 01:52:38;;;;;;;6.57;2.30;;;;;;;16.92;64.49;97273.06;4986890;28;20050;-63
2022/07/27 01:55:09;;;;;;;7.65;2.45;;;;;;;16.75;65.41;97277.13;4960334;28;20390;-63
2022/07/27 01:57:36;;;;;;;11.32;2.97;;;;;;;16.68;65.64;97265.75;4948354;28;20451;-63
2022/07/27 02:00:04;;;;;;;7.43;2.30;;;;;;;16.43;66.91;97265.78;4956843;28;20499;-63
2022/07/27 02:02:38;;;;;;;6.70;2.40;;;;;;;16.38;67.55;97265.88;4951567;28;20143;-63
2022/07/27 02:05:05;;;;;;;11.35;3.08;;;;;;;16.37;67.78;97265.03;4964339;28;20093;-63
2022/07/27 02:07:31;;;;;;;9.85;2.60;;;;;;;16.40;67.38;97268.31;4970135;28;20582;-63
2022/07/27 02:09:58;;;;;;;15.77;3.30;;;;;;;16.45;67.19;97251.84;4958933;28;20054;-62
2022/07/27 02:12:37;;;;;;;10.35;2.55;;;;;;;16.51;66.79;97254.22;4951011;28;20047;-63
2022/07/27 02:15:10;;;;;;;11.27;2.00;;;;;;;16.55;66.37;97251.69;4968928;28;20039;-63
2022/07/27 02:17:42;;;;;;;8.27;2.70;;;;;;;16.44;67.23;97255.69;4969984;28;20126;-63
2022/07/27 02:20:09;;;;;;;6.38;2.60;;;;;;;16.46;67.11;97246.09;4969870;28;20057;-63
2022/07/27 02:22:36;;;;;;;15.90;2.92;;;;;;;16.47;67.08;97241.44;4970955;28;20590;-63
2022/07/27 02:25:04;;;;;;;6.88;2.97;;;;;;;16.50;67.05;97243.56;4953421;28;20042;-63
2022/07/27 02:27:30;;;;;;;11.77;2.70;;;;;;;16.34;67.81;97251.16;4954933;28;20450;-63
2022/07/27 02:29:57;;;;;;;9.60;2.42;;;;;;;16.17;68.25;97249.72;4973489;28;20054;-63
2022/07/27 02:32:23;;;;;;;8.27;2.80;;;;;;;16.10;68.66;97252.81;4967504;28;20038;-63
2022/07/27 02:34:50;;;;;;;5.22;2.38;;;;;;;15.79;70.60;97250.41;4966394;28;20118;-63
2022/07/27 02:37:17;;;;;;;7.03;2.60;;;;;;;15.67;70.95;97249.97;4965619;28;20051;-63
2022/07/27 02:39:43;;;;;;;6.95;3.00;;;;;;;15.54;71.52;97257.72;4965389;28;20262;-63
2022/07/27 02:42:10;;;;;;;5.10;2.92;;;;;;;15.63;70.93;97251.66;4969448;28;20529;-63
2022/07/27 02:44:36;;;;;;;5.80;2.50;;;;;;;15.59;70.93;97265.06;4956912;28;20200;-63
2022/07/27 02:47:03;;;;;;;3.97;2.63;;;;;;;15.46;72.12;97259.19;4949789;28;20055;-63
2022/07/27 02:49:29;;;;;;;5.28;2.65;;;;;;;15.48;71.81;97265.16;4970160;28;20043;-63
2022/07/27 02:51:56;;;;;;;5.88;2.63;;;;;;;15.63;70.85;97260.66;4970011;28;20057;-63
2022/07/27 02:54:24;;;;;;;9.18;2.90;;;;;;;15.78;70.70;97258.88;4968650;28;20453;-63
2022/07/27 02:56:51;;;;;;;5.32;2.90;;;;;;;15.83;70.39;97256.09;4969507;28;20383;-63
2022/07/27 02:59:18;;;;;;;5.45;2.92;;;;;;;15.71;71.05;97251.03;4962998;28;20419;-63
2022/07/27 03:01:45;;;;;;;8.35;2.72;;;;;;;15.34;72.66;97253.28;4969577;28;20053;-62
2022/07/27 03:04:12;;;;;;;4.97;2.95;;;;;;;15.25;73.59;97250.34;4952253;28;20129;-62
2022/07/27 03:06:40;;;;;;;6.68;2.80;;;;;;;15.23;73.71;97257.19;4950692;28;20054;-62
2022/07/27 03:09:07;;;;;;;5.03;2.97;;;;;;;15.16;73.92;97261.06;4961092;28;20334;-63
2022/07/27 03:11:34;;;;;;;5.47;3.28;;;;;;;15.17;74.22;97261.84;4968539;28;20046;-62
2022/07/27 03:14:01;;;;;;;7.03;3.53;;;;;;;15.20;74.47;97264.03;4965095;28;20051;-62
2022/07/27 03:16:27;;;;;;;4.35;2.58;;;;;;;15.32;74.22;97267.19;4965420;28;20043;-63
2022/07/27 03:18:54;;;;;;;5.32;2.83;;;;;;;15.48;73.62;97267.06;4961359;28;20051;-63
2022/07/27 03:21:21;;;;;;;5.90;2.90;;;;;;;15.62;72.95;97263.69;4968224;28;20491;-63
2022/07/27 03:23:48;;;;;;;6.63;2.97;;;;;;;15.71;72.80;97256.47;4956096;28;20051;-63
2022/07/27 03:26:15;;;;;;;4.20;2.72;;;;;;;15.83;72.27;97258.81;4949739;28;20235;-63
2022/07/27 03:28:42;;;;;;;6.70;3.28;;;;;;;15.90;72.28;97266.66;4958819;28;20423;-62
2022/07/27 03:31:08;;;;;;;5.07;2.78;;;;;;;16.01;72.09;97262.75;4949979;28;20043;-63
2022/07/27 03:33:35;;;;;;;6.35;3.42;;;;;;;16.11;71.72;97264.56;4956272;28;20043;-63
2022/07/27 03:36:02;;;;;;;4.72;3.10;;;;;;;16.24;71.43;97263.84;4949478;28;20047;-62
2022/07/27 03:38:29;;;;;;;7.47;3.75;;;;;;;16.18;71.77;97266.94;4966118;28;20069;-63
2022/07/27 03:40:55;;;;;;;6.18;3.42;;;;;;;16.22;72.02;97262.53;4968623;28;20046;-63
2022/07/27 03:43:22;;;;;;;7.28;3.00;;;;;;;16.16;72.03;97261.75;4967667;28;20098;-63
2022/07/27 03:45:49;;;;;;;5.13;3.28;;;;;;;16.08;72.75;97262.41;4968580;28;20039;-62
2022/07/27 03:48:15;;;;;;;5.63;3.05;;;;;;;16.09;72.67;97262.13;4968428;28;20043;-63
2022/07/27 03:50:42;;;;;;;5.68;3.03;;;;;;;16.19;72.05;97255.72;4966368;28;20458;-63
2022/07/27 03:53:08;;;;;;;4.68;3.00;;;;;;;16.25;72.09;97260.00;4960150;28;20038;-63
2022/07/27 03:55:35;;;;;;;7.07;3.45;;;;;;;16.29;71.35;97259.44;4965559;28;20237;-63
2022/07/27 03:58:02;;;;;;;6.93;3.03;;;;;;;16.28;71.75;97271.47;4964399;28;20565;-63
2022/07/27 04:00:28;;;;;;;5.32;3.45;;;;;;;16.35;71.33;97271.91;4966529;28;20097;-63
2022/07/27 04:02:55;;;;;;;6.10;3.13;;;;;;;16.42;71.44;97269.63;4961729;28;20076;-63
2022/07/27 04:05:21;;;;;;;5.60;3.08;;;;;;;16.36;71.22;97265.34;4966140;28;20043;-63
2022/07/27 04:07:48;;;;;;;5.70;3.28;;;;;;;16.42;71.07;97269.63;4965953;28;20390;-59
2022/07/27 04:10:20;;;;;;;6.57;3.55;;;;;;;16.54;70.81;97271.16;4965051;28;20058;-58
2022/07/27 04:12:48;;;;;;;4.28;3.03;;;;;;;16.68;70.42;97280.22;4964002;28;20050;-56
2022/07/27 04:15:15;;;;;;;6.32;3.65;;;;;;;16.57;70.77;97276.00;4964314;28;20097;-58
2022/07/27 04:17:42;;;;;;;5.85;3.08;;;;;;;16.61;70.69;97269.66;4965745;28;20121;-56
2022/07/27 04:20:22;;;;;;;5.15;3.00;;;;;;;16.62;70.52;97267.75;4962530;28;20408;-58
2022/07/27 04:22:48;;;;;;;5.10;3.20;;;;;;;16.82;70.18;97266.66;4956178;28;20051;-58
2022/07/27 04:25:15;;;;;;;4.97;2.85;;;;;;;17.00;69.10;97275.94;4964842;28;20426;-58
2022/07/27 04:27:42;;;;;;;5.50;3.20;;;;;;;16.89;69.64;97279.94;4966243;28;20482;-59
2022/07/27 04:30:09;;;;;;;7.25;3.22;;;;;;;16.77;70.46;97277.66;4955225;28;20515;-58
2022/07/27 04:32:36;;;;;;;9.82;3.03;;;;;;;16.83;70.04;97275.66;4964355;28;20042;-59
2022/07/27 04:35:03;;;;;;;6.45;3.08;;;;;;;16.95;69.45;97276.03;4965568;28;20039;-59
2022/07/27 04:37:31;;;;;;;7.00;3.05;;;;;;;17.19;68.86;97275.16;4964438;28;20051;-59
2022/07/27 04:39:57;;;;;;;5.47;3.22;;;;;;;17.29;68.34;97280.44;4965361;28;20494;-58
2022/07/27 04:42:24;;;;;;;6.75;3.15;;;;;;;17.17;68.46;97288.31;4959158;28;20051;-58
2022/07/27 04:44:50;;;;;;;6.93;3.38;;;;;;;17.22;68.41;97290.97;4963324;28;20125;-59
2022/07/27 04:47:17;;;;;;;6.03;2.97;;;;;;;17.21;68.66;97294.81;4965239;28;20050;-58
2022/07/27 04:49:44;;;;;;;5.75;2.97;;;;;;;17.27;68.28;97293.63;4965953;28;20521;-58
2022/07/27 04:52:13;;;;;;;5.82;2.75;;;;;;;17.46;67.91;97289.25;4964774;28;20042;-57
2022/07/27 04:54:40;;;;;;;4.20;2.90;;;;;;;17.67;66.70;97289.69;4964670;28;20050;-59
2022/07/27 04:57:07;;;;;;;5.68;2.97;;;;;;;17.57;67.18;97296.16;4963987;28;20597;-59
2022/07/27 04:59:34;;;;;;;4.47;2.67;;;;;;;17.60;67.25;97292.81;4963012;28;20474;-58
2022/07/27 05:02:00;;;;;;;5.63;3.00;;;;;;;17.63;67.09;97289.50;4964431;28;20045;-59
2022/07/27 05:04:27;;;;;;;5.53;2.85;;;;;;;17.47;67.94;97294.41;4961206;28;20058;-57
2022/07/27 05:06:55;;;;;;;5.88;2.90;;;;;;;17.53;67.33;97306.91;4964374;28;20047;-58
2022/07/27 05:09:22;;;;;;;3.85;2.67;;;;;;;17.76;66.64;97312.53;4962298;28;20043;-57
2022/07/27 05:11:48;;;;;;;4.60;2.70;;;;;;;17.94;66.44;97316.31;4964690;28;20133;-57
2022/07/27 05:14:17;;;;;;;6.00;2.83;;;;;;;17.90;65.55;97318.03;4964942;28;20495;-58
2022/07/27 05:16:47;;;;;;;6.38;2.90;;;;;;;17.81;66.05;97309.69;4964733;28;20127;-58
2022/07/27 05:19:13;;;;;;;5.15;2.80;;;;;;;17.81;66.25;97314.38;4964600;28;20046;-57
2022/07/27 05:21:41;;;;;;;6.00;3.00;;;;;;;17.87;65.59;97315.09;4964694;28;20057;-58
2022/07/27 05:24:08;;;;;;;4.38;2.72;;;;;;;17.84;65.50;97326.66;4957865;28;20557;-58
2022/07/27 05:26:35;;;;;;;4.50;3.17;;;;;;;18.00;65.00;97333.50;4964633;28;20039;-57
2022/07/27 05:29:02;;;;;;;3.20;2.35;;;;;;;18.23;64.32;97328.16;4962705;28;20078;-58
2022/07/27 05:31:29;;;;;;;5.63;3.30;;;;;;;18.26;64.72;97322.06;4964652;28;20077;-60
2022/07/27 05:33:55;;;;;;;3.97;2.78;;;;;;;18.36;64.14;97331.22;4961013;28;20525;-60
2022/07/27 05:36:24;;;;;;;4.38;3.03;;;;;;;18.20;64.44;97331.50;4968562;28;20117;-61
2022/07/27 05:38:50;;;;;;;6.97;2.88;;;;;;;18.38;64.07;97334.44;4963486;28;20047;-59
2022/07/27 05:41:24;;;;;;;5.88;3.13;;;;;;;18.31;63.94;97345.81;4962011;28;20542;-59
2022/07/27 05:43:53;;;;;;;4.22;2.88;;;;;;;18.31;63.75;97338.41;4956005;28;20418;-59
2022/07/27 05:46:20;;;;;;;4.90;2.85;;;;;;;18.30;64.37;97345.03;4956928;28;20043;-59
2022/07/27 05:48:47;;;;;;;4.28;2.95;;;;;;;18.23;64.55;97343.78;4950489;28;20518;-57
2022/07/27 05:51:13;;;;;;;5.18;2.65;;;;;;;18.43;63.50;97351.59;4951560;28;20051;-57
2022/07/27 05:53:40;;;;;;;7.00;2.70;;;;;;;18.73;62.49;97348.56;4950315;28;20051;-59
2022/07/27 05:56:07;;;;;;;5.35;2.88;;;;;;;18.70;62.74;97355.47;4952822;28;20057;-58
2022/07/27 05:58:33;;;;;;;4.88;3.13;;;;;;;18.52;63.39;97357.22;4951924;28;20378;-59
2022/07/27 06:01:00;;;;;;;4.70;2.88;;;;;;;18.50;63.16;97359.44;4953602;28;21498;-59
2022/07/27 06:03:26;;;;;;;7.68;3.20;;;;;;;18.24;63.91;97357.19;4954259;28;20094;-59
2022/07/27 06:07:57;;;;;;;4.63;2.80;;;;;;;18.31;63.31;97352.13;4964542;28;20047;-59
2022/07/27 06:08:39;;;;;;;9.77;3.30;;;;;;;18.25;63.82;97345.13;4968402;28;20094;-59
2022/07/27 06:11:06;;;;;;;5.55;2.90;;;;;;;18.43;63.21;97353.56;4968665;28;20042;-59
2022/07/27 06:13:35;;;;;;;6.13;2.83;;;;;;;18.33;63.52;97349.88;4967799;28;20063;-58
2022/07/27 06:16:02;;;;;;;5.05;3.10;;;;;;;18.23;63.92;97350.09;4964517;28;20407;-59
2022/07/27 06:18:29;;;;;;;4.47;2.95;;;;;;;18.52;62.79;97348.97;4967555;28;20511;-58
2022/07/27 06:20:56;;;;;;;6.00;3.28;;;;;;;18.52;62.53;97354.47;4968217;28;20485;-59
2022/07/27 06:23:23;;;;;;;4.95;2.80;;;;;;;18.37;63.41;97358.31;4968106;28;20043;-57
2022/07/27 06:25:49;;;;;;;5.40;3.08;;;;;;;18.57;62.56;97361.75;4967323;28;20047;-55
2022/07/27 06:28:18;;;;;;;5.13;3.08;;;;;;;18.68;62.12;97363.19;4968223;28;20137;-69
2022/07/27 06:30:45;;;;;;;5.90;3.20;;;;;;;18.70;62.00;97360.97;4967330;28;20090;-65
2022/07/27 06:33:13;;;;;;;9.07;4.00;;;;;;;18.87;61.34;97356.75;4967020;28;20050;-65
2022/07/27 06:35:40;;;;;;;4.45;2.70;;;;;;;18.97;61.19;97361.22;4962769;28;20082;-66
2022/07/27 06:38:07;;;;;;;4.40;2.72;;;;;;;19.20;59.82;97362.13;4966423;28;20092;-66
2022/07/27 06:40:34;;;;;;;4.55;3.13;;;;;;;19.06;60.38;97358.59;4967288;28;20285;-66
2022/07/27 06:43:01;;;;;;;5.22;2.80;;;;;;;19.14;60.56;97359.78;4966871;28;20057;-65
2022/07/27 06:45:28;;;;;;;4.43;2.85;;;;;;;19.34;60.01;97353.03;4966866;28;20514;-66
2022/07/27 06:47:54;;;;;;;5.22;2.83;;;;;;;19.00;61.43;97357.03;4967586;28;20055;-66
2022/07/27 06:50:21;;;;;;;4.60;2.97;;;;;;;18.84;61.51;97358.19;4967650;28;20498;-65
2022/07/27 06:52:48;;;;;;;7.15;3.22;;;;;;;18.99;60.99;97359.00;4968115;28;20110;-65
2022/07/27 06:55:15;;;;;;;4.55;2.70;;;;;;;19.04;61.45;97369.84;4967451;28;20548;-66
2022/07/27 06:57:41;;;;;;;5.05;2.72;;;;;;;19.19;60.94;97359.69;4967115;28;20070;-65
2022/07/27 07:00:10;;;;;;;4.97;3.00;;;;;;;18.95;61.41;97363.47;4966268;28;20042;-62
2022/07/27 07:02:37;;;;;;;5.97;2.90;;;;;;;18.90;61.90;97364.38;4967652;28;20050;-62
2022/07/27 07:05:03;;;;;;;6.43;3.78;;;;;;;19.06;61.14;97362.13;4967590;28;20125;-62
2022/07/27 07:07:30;;;;;;;16.17;4.07;;;;;;;19.16;61.03;97366.59;4966907;28;20043;-62
2022/07/27 07:09:57;;;;;;;5.28;2.75;;;;;;;19.21;60.75;97374.72;4967237;28;20082;-63
2022/07/27 07:12:24;;;;;;;7.40;3.13;;;;;;;19.39;59.78;97371.31;4967468;28;20113;-62
2022/07/27 07:14:50;;;;;;;5.05;2.90;;;;;;;19.17;61.16;97370.16;4967245;28;20105;-62
2022/07/27 07:17:17;;;;;;;6.72;3.15;;;;;;;19.28;60.87;97370.75;4967302;28;20043;-62
2022/07/27 07:19:45;;;;;;;5.65;2.90;;;;;;;19.50;59.89;97372.72;4962963;28;20222;-62
2022/07/27 07:22:11;;;;;;;5.80;3.40;;;;;;;19.55;59.58;97364.34;4967540;28;20046;-62
2022/07/27 07:24:38;;;;;;;5.63;3.10;;;;;;;19.48;60.14;97373.03;4966355;28;20054;-62
2022/07/27 07:27:04;;;;;;;6.22;2.88;;;;;;;19.68;59.05;97370.88;4966946;28;20098;-62
2022/07/27 07:29:31;;;;;;;4.60;2.80;;;;;;;19.84;58.94;97368.59;4954618;28;20101;-62
2022/07/27 07:31:57;;;;;;;5.00;2.95;;;;;;;19.53;59.59;97371.28;4966856;28;20109;-62
2022/07/27 07:34:24;;;;;;;5.43;2.83;;;;;;;19.59;59.76;97370.84;4967458;28;20046;-62
2022/07/27 07:36:51;;;;;;;6.55;2.90;;;;;;;19.88;59.25;97364.09;4966201;28;20046;-62
2022/07/27 07:39:17;;;;;;;3.58;2.70;;;;;;;20.13;58.02;97361.81;4966931;28;20265;-62
2022/07/27 07:41:44;;;;;;;6.40;3.00;;;;;;;20.21;58.07;97354.75;4966338;28;20493;-62
2022/07/27 07:44:10;;;;;;;4.65;2.60;;;;;;;20.59;56.98;97361.69;4967045;28;20115;-62
2022/07/27 07:46:37;;;;;;;5.15;2.90;;;;;;;20.42;57.68;97356.97;4966071;28;20108;-62
2022/07/27 07:49:09;;;;;;;7.85;2.70;;;;;;;20.50;57.21;97347.91;4971864;28;20058;-62
2022/07/27 07:51:36;;;;;;;4.10;2.53;;;;;;;20.53;56.19;97352.00;4972244;28;20047;-62
2022/07/27 07:54:03;;;;;;;4.97;2.88;;;;;;;20.51;56.88;97362.47;4961651;28;20047;-62
2022/07/27 07:56:29;;;;;;;5.50;2.45;;;;;;;20.86;55.57;97364.53;4960930;28;20070;-62
2022/07/27 07:58:56;;;;;;;4.30;2.40;;;;;;;20.54;56.64;97357.16;4966370;28;20046;-62
2022/07/27 08:01:24;;;;;;;4.85;2.67;;;;;;;20.65;56.33;97357.66;4965200;28;20458;-62
2022/07/27 08:03:51;;;;;;;6.22;2.70;;;;;;;20.61;56.36;97364.97;4958098;28;20458;-62
2022/07/27 08:06:18;;;;;;;3.88;2.72;;;;;;;20.91;55.10;97362.47;4965347;28;20327;-62
2022/07/27 08:08:44;;;;;;;4.82;3.08;;;;;;;20.79;55.72;97367.75;4980583;28;20358;-62
2022/07/27 08:11:11;;;;;;;4.63;2.80;;;;;;;20.75;55.61;97355.78;4967201;28;20509;-62
2022/07/27 08:13:38;;;;;;;5.43;2.60;;;;;;;20.39;57.05;97358.38;4962907;28;20047;-62
2022/07/27 08:16:04;;;;;;;6.93;2.95;;;;;;;20.42;57.03;97358.88;4965531;28;20046;-62
2022/07/27 08:18:31;;;;;;;4.00;2.60;;;;;;;20.71;55.99;97357.53;4965692;28;20039;-62
2022/07/27 08:20:58;;;;;;;4.97;2.42;;;;;;;21.01;55.19;97366.06;4965923;28;20047;-62
2022/07/27 08:23:25;;;;;;;5.95;2.92;;;;;;;21.02;55.24;97374.00;4965975;28;20515;-62
2022/07/27 08:25:53;;;;;;;5.50;2.70;;;;;;;21.28;55.17;97381.47;4952798;28;20043;-66
2022/07/27 08:28:20;;;;;;;3.30;2.28;;;;;;;21.28;53.90;97375.97;4966514;28;20824;-66
2022/07/27 08:30:47;;;;;;;4.18;2.80;;;;;;;21.13;53.57;97377.25;4965375;28;20046;-66
2022/07/27 08:33:15;;;;;;;4.25;2.70;;;;;;;21.09;54.58;97383.72;4966500;28;20094;-66
2022/07/27 08:35:41;;;;;;;4.32;2.30;;;;;;;21.26;54.25;97386.47;4962107;28;20403;-66
2022/07/27 08:38:08;;;;;;;6.00;3.10;;;;;;;20.85;54.77;97391.22;4965872;28;20070;-66
2022/07/27 08:40:35;;;;;;;4.25;2.63;;;;;;;20.84;54.74;97389.63;4965950;28;20057;-66
2022/07/27 08:43:07;;;;;;;7.32;2.92;;;;;;;20.53;55.76;97387.75;4955798;28;20040;-66
2022/07/27 08:45:36;;;;;;;4.40;2.92;;;;;;;19.92;57.98;97389.00;4962268;28;20047;-66
2022/07/27 08:48:03;;;;;;;4.28;2.72;;;;;;;19.83;57.92;97379.91;4964999;28;20585;-67
2022/07/27 08:50:31;;;;;;;5.25;2.90;;;;;;;19.55;58.73;97380.00;4965366;28;20047;-66
2022/07/27 08:53:09;;;;;;;4.45;2.63;;;;;;;19.47;59.64;97381.56;4965409;28;20054;-66
2022/07/27 08:55:40;;;;;;;5.72;2.80;;;;;;;19.25;60.59;97394.13;4965580;28;20121;-66
2022/07/27 08:58:08;;;;;;;6.60;3.10;;;;;;;19.49;59.90;97382.06;4965864;28;20418;-66
2022/07/27 09:00:38;;;;;;;6.85;3.00;;;;;;;19.54;59.60;97376.47;4964179;28;20046;-66
2022/07/27 09:03:05;;;;;;;5.60;2.80;;;;;;;19.93;58.83;97382.38;4965864;28;20046;-67
2022/07/27 09:05:32;;;;;;;5.72;2.60;;;;;;;20.26;58.16;97375.78;4965084;28;20053;-66
2022/07/27 09:08:10;;;;;;;5.28;3.08;;;;;;;20.60;56.00;97376.28;4965422;28;20055;-66
2022/07/27 09:10:37;;;;;;;6.13;2.97;;;;;;;20.49;56.85;97381.25;4965447;28;20047;-66
2022/07/27 09:13:18;;;;;;;5.70;2.90;;;;;;;20.89;54.58;97386.75;4952972;28;20142;-66
2022/07/27 09:15:46;;;;;;;;;;;;;;;21.08;54.25;97382.09;4964854;28;20131;-67
2022/07/27 09:18:36;;;;;;;3.75;2.70;;;;;;;21.32;54.17;97359.59;4961710;28;20053;-66
2022/07/27 09:21:22;;;;;;;4.50;2.83;;;;;;;21.49;53.55;97369.00;4958575;28;20054;-66
2022/07/27 09:23:54;;;;;;;5.18;2.72;;;;;;;21.40;52.95;97371.75;4962442;28;20562;-66
2022/07/27 09:26:23;;;;;;;6.03;2.67;;;;;;;21.27;52.93;97373.53;4964361;28;20050;-66
2022/07/27 09:29:07;;;;;;;4.00;2.33;;;;;;;21.55;52.74;97370.44;4962441;28;20046;-66
2022/07/27 09:31:49;;;;;;;4.95;2.65;;;;;;;21.70;52.46;97372.72;4964967;28;20569;-66
2022/07/27 09:34:29;;;;;;;5.95;2.70;;;;;;;21.72;52.63;97364.13;4963749;28;20468;-66
2022/07/27 09:36:57;;;;;;;3.95;2.47;;;;;;;21.88;51.19;97374.66;4964528;28;20047;-67
2022/07/27 09:39:26;;;;;;;4.15;2.47;;;;;;;21.87;50.48;97368.34;4965111;28;20050;-66
2022/07/27 09:42:01;;;;;;;4.40;2.65;;;;;;;21.77;51.07;97363.97;4964091;28;20046;-66
2022/07/27 09:44:40;;;;;;;5.95;2.55;;;;;;;22.43;49.66;97373.06;4965358;28;20454;-67
2022/07/27 09:47:25;;;;;;;4.20;2.47;;;;;;;22.82;48.61;97366.75;4964343;28;20047;-66
2022/07/27 09:49:52;;;;;;;4.47;2.35;;;;;;;23.18;47.62;97372.88;4964487;28;20046;-66
2022/07/27 09:52:29;;;;;;;4.60;2.13;;;;;;;23.59;46.74;97376.78;4951557;28;20070;-66
2022/07/27 09:55:04;;;;;;;5.80;2.67;;;;;;;23.72;46.48;97374.06;4965124;28;20058;-66
2022/07/27 09:57:57;;;;;;;5.13;2.45;;;;;;;23.08;48.09;97377.66;4965062;28;20047;-66
2022/07/27 10:00:25;;;;;;;8.50;2.53;;;;;;;22.97;48.51;97373.66;4961758;28;20051;-66
2022/07/27 10:02:52;;;;;;;5.45;2.30;;;;;;;22.65;49.26;97367.63;4960257;28;20065;-66
2022/07/27 10:05:22;;;;;;;3.65;2.22;;;;;;;22.03;49.90;97374.16;4964024;28;20057;-65
2022/07/27 10:07:52;;;;;;;8.75;2.53;;;;;;;21.88;49.80;97375.47;4964034;28;20034;-66
2022/07/27 10:10:21;;;;;;;4.95;2.13;;;;;;;21.82;49.64;97365.78;4963746;28;20557;-66
2022/07/27 10:12:48;;;;;;;3.72;2.30;;;;;;;22.06;48.50;97376.25;4963253;28;20550;-66
2022/07/27 10:15:22;;;;;;;5.15;2.17;;;;;;;22.26;47.95;97373.13;4951929;28;20055;-66
2022/07/27 10:17:58;;;;;;;4.60;2.30;;;;;;;22.31;47.24;97359.97;4962479;28;20054;-66
2022/07/27 10:20:25;;;;;;;5.43;2.50;;;;;;;22.76;47.53;97362.53;4966276;28;20053;-66
2022/07/27 10:22:55;;;;;;;5.43;2.20;;;;;;;23.31;45.99;97362.69;4966454;28;20047;-66
2022/07/27 10:25:23;;;;;;;4.50;2.00;;;;;;;23.69;44.64;97361.75;4961334;28;20055;-66
2022/07/27 10:28:10;;;;;;;4.85;2.30;;;;;;;23.97;43.66;97363.94;4963200;28;20039;-66
2022/07/27 10:30:38;;;;;;;5.20;2.17;;;;;;;23.49;44.49;97364.22;4962564;28;20067;-65
2022/07/27 10:33:19;;;;;;;4.22;2.13;;;;;;;23.71;43.33;97353.13;4968057;28;20501;-65
2022/07/27 10:35:46;;;;;;;3.95;1.88;;;;;;;23.56;43.55;97366.44;4965094;28;20054;-66
2022/07/27 10:38:17;;;;;;;3.60;1.80;;;;;;;23.64;43.76;97361.97;4964649;28;20043;-66
2022/07/27 10:40:43;;;;;;;3.95;2.10;;;;;;;23.93;43.30;97365.75;4960858;28;20434;-66
2022/07/27 10:43:18;;;;;;;4.38;2.20;;;;;;;23.85;43.19;97353.63;4963313;28;20510;-66
2022/07/27 10:45:48;;;;;;;4.53;1.80;;;;;;;23.97;43.39;97363.09;4965154;28;20054;-66
2022/07/27 10:48:39;;;;;;;3.95;1.77;;;;;;;23.88;42.76;97361.25;4966284;28;20085;-66
2022/07/27 10:51:17;;;;;;;4.28;2.58;;;;;;;23.91;42.79;97356.97;4965878;28;20054;-66
2022/07/27 10:53:44;;;;;;;4.80;1.97;;;;;;;23.89;41.87;97357.31;4967388;28;20047;-66
2022/07/27 10:56:45;;;;;;;4.40;2.10;;;;;;;23.89;42.65;97357.31;4967581;28;20121;-66
2022/07/27 10:59:11;;;;;;;4.40;2.75;;;;;;;24.38;41.78;97361.38;4967860;28;20071;-66
2022/07/27 11:01:56;;;;;;;4.03;1.70;;;;;;;24.10;42.14;97361.19;4966355;28;20263;-66
2022/07/27 11:04:23;;;;;;;4.00;1.70;;;;;;;23.92;42.97;97363.34;4968204;28;20047;-66
2022/07/27 11:06:59;;;;;;;3.75;1.80;;;;;;;23.57;43.20;97368.03;4967146;28;20097;-66
2022/07/27 11:09:48;;;;;;;4.20;1.90;;;;;;;23.35;43.57;97366.41;4968128;28;20046;-66
2022/07/27 11:12:30;;;;;;;3.25;1.73;;;;;;;23.54;43.13;97365.16;4964194;28;20642;-65
2022/07/27 11:14:57;;;;;;;3.97;1.83;;;;;;;23.67;42.62;97360.47;4961188;28;20046;-65
2022/07/27 11:17:28;;;;;;;3.13;1.73;;;;;;;23.92;42.14;97353.09;4967900;28;20050;-66
2022/07/27 11:20:20;;;;;;;;;;;;;;;24.19;41.54;97359.16;4965901;28;20053;-66
2022/07/27 11:22:46;;;;;;;5.07;2.00;;;;;;;23.92;41.91;97355.03;4963011;28;19927;-66
2022/07/27 11:25:33;;;;;;;4.32;1.70;;;;;;;24.16;42.58;97344.06;4965023;28;20109;-66
2022/07/27 11:28:06;;;;;;;3.72;1.48;;;;;;;24.54;42.08;97350.44;4961934;28;20039;-66
2022/07/27 11:30:33;;;;;;;2.28;1.70;;;;;;;24.23;42.26;97354.56;4964801;28;20062;-66
2022/07/27 11:33:03;;;;;;;6.53;1.98;;;;;;;24.48;41.98;97349.06;4961495;28;20046;-65
2022/07/27 11:35:29;;;;;;;2.42;1.40;;;;;;;25.15;40.56;97345.22;4963661;28;20095;-65
2022/07/27 11:37:58;;;;;;;3.78;1.70;;;;;;;25.62;38.84;97336.69;4965980;28;20050;-66
2022/07/27 11:40:24;;;;;;;2.80;1.52;;;;;;;25.82;38.89;97348.72;4965780;28;20046;-66
2022/07/27 11:43:11;;;;;;;2.40;1.35;;;;;;;25.76;37.74;97348.16;4961499;28;20046;-65